Time;durP1;ratioP1;P1;durP2;ratioP2;P2;SDS_P1;SDS_P2;PMS_P1;PMS_P2;Temp;Humidity;BMP_temperature;BMP_pressure;BME280_temperature;BME280_humidity;BME280_pressure;Samples;Min_cycle;Max_cycle;Signal;HPM_P1;HPM_P2
2023/11/27 00:00:26;;;;;;;9.07;7.15;;;6.30;99.90;;;;;;5080718;28;20024;-37
2023/11/27 00:02:52;;;;;;;8.50;7.00;;;6.40;99.90;;;;;;5080236;28;20024;-36
2023/11/27 00:05:19;;;;;;;7.68;6.40;;;6.40;99.90;;;;;;5079765;28;20032;-37
2023/11/27 00:07:44;;;;;;;8.68;6.43;;;6.40;99.90;;;;;;5080642;28;20106;-36
2023/11/27 00:10:10;;;;;;;11.50;7.50;;;6.40;99.90;;;;;;5084418;28;20104;-36
2023/11/27 00:12:36;;;;;;;8.10;6.63;;;6.40;99.90;;;;;;5082826;28;20119;-37
2023/11/27 00:15:01;;;;;;;8.85;6.63;;;6.40;99.90;;;;;;5083630;28;20070;-36
2023/11/27 00:17:30;;;;;;;9.73;7.68;;;6.40;99.90;;;;;;5084116;28;20044;-37
2023/11/27 00:19:55;;;;;;;8.35;6.60;;;6.30;99.90;;;;;;5082741;28;20139;-37
2023/11/27 00:22:21;;;;;;;11.40;6.85;;;6.40;99.90;;;;;;5084030;28;20144;-36
2023/11/27 00:24:46;;;;;;;7.63;6.82;;;6.40;99.90;;;;;;5083121;28;20470;-37
2023/11/27 00:27:12;;;;;;;9.70;7.43;;;6.40;99.90;;;;;;5082923;28;20637;-37
2023/11/27 00:29:41;;;;;;;8.18;6.68;;;6.40;99.90;;;;;;5084072;28;20417;-36
2023/11/27 00:32:06;;;;;;;8.82;6.40;;;6.40;99.90;;;;;;5083865;28;20028;-36
2023/11/27 00:34:32;;;;;;;11.52;6.40;;;6.40;99.90;;;;;;5083550;28;20492;-36
2023/11/27 00:37:00;;;;;;;9.25;7.35;;;6.50;99.90;;;;;;5082251;28;20040;-35
2023/11/27 00:39:26;;;;;;;10.45;7.72;;;6.40;99.90;;;;;;5084195;28;20096;-36
2023/11/27 00:41:52;;;;;;;9.25;7.25;;;6.40;99.90;;;;;;5082638;28;20414;-37
2023/11/27 00:44:17;;;;;;;9.25;6.97;;;6.40;99.90;;;;;;5083781;28;20028;-36
2023/11/27 00:46:47;;;;;;;7.30;6.60;;;6.40;99.90;;;;;;5083887;28;20115;-37
2023/11/27 00:49:13;;;;;;;11.07;7.70;;;6.40;99.90;;;;;;5079645;28;20020;-42
2023/11/27 00:51:38;;;;;;;8.07;6.97;;;6.40;99.90;;;;;;5083596;28;20852;-36
2023/11/27 00:54:04;;;;;;;9.38;7.47;;;6.40;99.90;;;;;;5080435;28;20040;-37
2023/11/27 00:56:29;;;;;;;9.40;7.15;;;6.40;99.90;;;;;;5063779;28;20475;-37
2023/11/27 00:58:55;;;;;;;8.60;7.30;;;6.30;99.90;;;;;;5075271;28;20043;-37
2023/11/27 01:01:21;;;;;;;10.20;7.82;;;6.30;99.90;;;;;;5063175;28;20093;-36
2023/11/27 01:03:46;;;;;;;8.95;7.72;;;6.30;99.90;;;;;;5072758;28;20028;-37
2023/11/27 01:06:13;;;;;;;9.48;7.93;;;6.30;99.90;;;;;;5065765;28;20040;-36
2023/11/27 01:08:40;;;;;;;9.45;7.40;;;6.30;99.90;;;;;;5069365;28;20028;-36
2023/11/27 01:11:06;;;;;;;8.60;6.45;;;6.40;99.90;;;;;;5067866;28;20031;-36
2023/11/27 01:13:32;;;;;;;10.20;8.73;;;6.40;99.90;;;;;;5067990;28;20031;-36
2023/11/27 01:15:57;;;;;;;9.98;7.50;;;6.40;99.90;;;;;;5068939;28;20462;-36
2023/11/27 01:18:23;;;;;;;8.60;6.97;;;6.40;99.90;;;;;;5064626;28;20040;-36
2023/11/27 01:20:49;;;;;;;11.75;7.93;;;6.40;99.90;;;;;;5072375;28;20028;-36
2023/11/27 01:23:14;;;;;;;9.85;7.18;;;6.40;99.90;;;;;;5063842;28;20028;-36
2023/11/27 01:25:40;;;;;;;9.40;6.75;;;6.40;99.90;;;;;;5073581;28;20020;-36
2023/11/27 01:28:06;;;;;;;9.05;6.70;;;6.40;99.90;;;;;;5063338;28;20036;-44
2023/11/27 01:30:32;;;;;;;11.60;7.25;;;6.40;99.90;;;;;;5073535;28;20025;-35
2023/11/27 01:32:58;;;;;;;10.77;7.80;;;6.40;99.90;;;;;;5062056;28;20116;-36
2023/11/27 01:35:23;;;;;;;9.35;7.45;;;6.40;99.90;;;;;;5074689;28;20135;-36
2023/11/27 01:37:49;;;;;;;7.80;6.22;;;6.30;99.90;;;;;;5061109;28;20037;-36
2023/11/27 01:40:15;;;;;;;11.57;7.13;;;6.40;99.90;;;;;;5073635;28;20052;-36
2023/11/27 01:42:40;;;;;;;8.50;5.75;;;6.40;99.90;;;;;;5062460;28;20024;-37
2023/11/27 01:45:06;;;;;;;8.55;6.05;;;6.40;99.90;;;;;;5070309;28;20527;-36
2023/11/27 01:47:32;;;;;;;9.65;5.95;;;6.40;99.90;;;;;;5065037;28;20755;-36
2023/11/27 01:49:59;;;;;;;10.88;6.88;;;6.40;99.90;;;;;;5068029;28;20107;-36
2023/11/27 01:52:26;;;;;;;7.50;6.07;;;6.30;99.90;;;;;;5066683;28;20483;-36
2023/11/27 01:54:52;;;;;;;8.05;6.47;;;6.30;99.90;;;;;;5079459;28;20055;-36
2023/11/27 01:57:20;;;;;;;10.13;6.53;;;6.30;99.90;;;;;;5081760;28;20031;-36
2023/11/27 01:59:47;;;;;;;8.48;5.95;;;6.30;99.90;;;;;;5081789;28;20128;-36
2023/11/27 02:02:14;;;;;;;7.15;5.68;;;6.30;99.90;;;;;;5082171;28;20042;-37
2023/11/27 02:04:40;;;;;;;7.25;5.57;;;6.30;99.90;;;;;;5081442;28;20062;-36
2023/11/27 02:07:07;;;;;;;7.07;5.70;;;6.30;99.90;;;;;;5081738;28;20127;-37
2023/11/27 02:09:32;;;;;;;8.10;6.13;;;6.30;99.90;;;;;;5082078;28;20028;-38
2023/11/27 02:11:58;;;;;;;7.32;5.93;;;6.30;99.90;;;;;;5080751;28;20039;-37
2023/11/27 02:14:24;;;;;;;7.13;5.60;;;6.20;99.90;;;;;;5081974;28;20127;-37
2023/11/27 02:16:50;;;;;;;7.95;5.32;;;6.20;99.90;;;;;;5081510;28;20148;-38
2023/11/27 02:19:16;;;;;;;8.82;5.78;;;6.20;99.90;;;;;;5081988;28;20043;-37
2023/11/27 02:21:43;;;;;;;8.05;5.18;;;6.20;99.90;;;;;;5081721;28;20070;-37
2023/11/27 02:24:08;;;;;;;7.20;5.28;;;6.20;99.90;;;;;;5061495;28;20028;-36
2023/11/27 02:26:37;;;;;;;6.32;4.85;;;6.20;99.90;;;;;;5075298;28;20559;-36
2023/11/27 02:29:03;;;;;;;6.47;5.18;;;6.20;99.90;;;;;;5080984;28;20020;-36
2023/11/27 02:31:30;;;;;;;8.50;5.72;;;6.20;99.90;;;;;;5080191;28;20598;-36
2023/11/27 02:33:56;;;;;;;7.53;5.85;;;6.20;99.90;;;;;;5080436;28;20844;-37
2023/11/27 02:36:24;;;;;;;7.13;5.30;;;6.20;99.90;;;;;;5081679;28;20020;-36
2023/11/27 02:38:50;;;;;;;8.80;6.07;;;6.20;99.90;;;;;;5081337;28;20071;-36
2023/11/27 02:41:18;;;;;;;10.90;6.15;;;6.20;99.90;;;;;;5081012;28;20573;-36
2023/11/27 02:43:44;;;;;;;7.93;5.80;;;6.20;99.90;;;;;;5081091;28;20494;-36
2023/11/27 02:46:09;;;;;;;8.75;6.00;;;6.20;99.90;;;;;;5081526;28;20020;-36
2023/11/27 02:48:35;;;;;;;9.02;6.68;;;6.20;99.90;;;;;;5080895;28;20035;-36
2023/11/27 02:51:02;;;;;;;8.98;6.57;;;6.10;99.90;;;;;;5079663;28;20036;-36
2023/11/27 02:53:28;;;;;;;10.00;5.93;;;6.10;99.90;;;;;;5074611;28;20094;-35
2023/11/27 02:55:56;;;;;;;8.77;6.00;;;6.10;99.90;;;;;;5060215;28;20072;-37
2023/11/27 02:58:22;;;;;;;9.55;6.10;;;6.10;99.90;;;;;;5073205;28;20037;-36
2023/11/27 03:00:47;;;;;;;8.77;6.25;;;6.10;99.90;;;;;;5060566;28;20028;-39
2023/11/27 03:03:13;;;;;;;9.23;6.43;;;6.10;99.90;;;;;;5072949;28;20040;-36
2023/11/27 03:05:38;;;;;;;9.10;6.40;;;6.10;99.90;;;;;;5060393;28;20024;-38
2023/11/27 03:08:04;;;;;;;9.10;6.15;;;6.10;99.90;;;;;;5070291;28;20066;-37
2023/11/27 03:10:33;;;;;;;8.70;6.35;;;6.10;99.90;;;;;;5062535;28;20064;-36
2023/11/27 03:12:58;;;;;;;10.00;6.68;;;6.10;99.90;;;;;;5069269;28;20479;-37
2023/11/27 03:15:24;;;;;;;8.57;6.60;;;6.10;99.90;;;;;;5063777;28;20435;-37
2023/11/27 03:17:49;;;;;;;11.25;6.18;;;6.10;99.90;;;;;;5066492;28;20032;-37
2023/11/27 03:20:15;;;;;;;11.27;6.95;;;6.10;99.90;;;;;;5067103;28;20562;-37
2023/11/27 03:22:41;;;;;;;8.57;6.28;;;6.10;99.90;;;;;;5063407;28;20466;-36
2023/11/27 03:25:07;;;;;;;9.68;6.88;;;6.10;99.90;;;;;;5069722;28;20027;-37
2023/11/27 03:27:32;;;;;;;8.40;6.60;;;6.10;99.90;;;;;;5062153;28;20355;-35
2023/11/27 03:29:58;;;;;;;7.80;5.80;;;6.10;99.90;;;;;;5070965;28;20028;-38
2023/11/27 03:32:24;;;;;;;6.78;5.63;;;6.10;99.90;;;;;;5062990;28;20040;-35
2023/11/27 03:34:49;;;;;;;7.03;5.90;;;6.10;99.90;;;;;;5071565;28;20029;-36
2023/11/27 03:37:18;;;;;;;7.75;5.72;;;6.10;99.90;;;;;;5060515;28;20443;-35
2023/11/27 03:39:43;;;;;;;8.50;6.20;;;6.10;99.90;;;;;;5072481;28;20032;-35
2023/11/27 03:42:09;;;;;;;9.40;6.35;;;6.10;99.90;;;;;;5060692;28;20029;-36
2023/11/27 03:44:35;;;;;;;10.10;6.60;;;6.10;99.90;;;;;;5068768;28;20029;-37
2023/11/27 03:47:00;;;;;;;8.93;6.80;;;6.10;99.90;;;;;;5084172;28;20023;-36
2023/11/27 03:49:26;;;;;;;7.63;6.60;;;6.10;99.90;;;;;;5073888;28;20046;-35
2023/11/27 03:51:51;;;;;;;8.35;6.35;;;6.10;99.90;;;;;;5082108;28;20474;-35
2023/11/27 03:54:17;;;;;;;9.48;7.20;;;6.10;99.90;;;;;;5076253;28;20139;-36
2023/11/27 03:56:43;;;;;;;11.10;6.75;;;6.10;99.90;;;;;;5080144;28;20028;-38
2023/11/27 03:59:09;;;;;;;8.85;6.43;;;6.10;99.90;;;;;;5078444;28;20047;-35
2023/11/27 04:01:35;;;;;;;7.57;5.80;;;6.10;99.90;;;;;;5071371;28;20106;-37
2023/11/27 04:04:00;;;;;;;9.88;5.93;;;6.10;99.90;;;;;;5066478;28;20550;-36
2023/11/27 04:06:31;;;;;;;9.98;7.00;;;6.10;99.90;;;;;;5074323;28;20082;-36
2023/11/27 04:09:00;;;;;;;9.98;6.93;;;6.10;99.90;;;;;;5065800;28;20028;-36
2023/11/27 04:11:27;;;;;;;9.52;7.20;;;6.10;99.90;;;;;;5062472;28;20023;-36
2023/11/27 04:13:57;;;;;;;7.07;5.97;;;6.00;99.90;;;;;;5082357;28;20033;-37
2023/11/27 04:16:23;;;;;;;8.07;5.93;;;6.00;99.90;;;;;;5073081;28;20020;-36
2023/11/27 04:18:49;;;;;;;7.20;5.10;;;6.00;99.90;;;;;;5081922;28;20123;-37
2023/11/27 04:21:19;;;;;;;7.30;5.22;;;6.10;99.90;;;;;;5073026;28;20021;-35
2023/11/27 04:23:45;;;;;;;7.28;5.18;;;6.10;99.90;;;;;;5084127;28;20060;-36
2023/11/27 04:26:12;;;;;;;5.57;4.97;;;6.10;99.90;;;;;;5070550;28;20020;-36
2023/11/27 04:28:39;;;;;;;5.70;5.00;;;6.10;99.90;;;;;;5084411;28;20095;-36
2023/11/27 04:31:05;;;;;;;5.72;4.38;;;6.10;99.90;;;;;;5070425;28;20733;-36
2023/11/27 04:33:34;;;;;;;6.55;4.40;;;6.10;99.90;;;;;;5083531;28;20066;-36
2023/11/27 04:36:00;;;;;;;5.38;4.38;;;6.10;99.90;;;;;;5072003;28;20111;-36
2023/11/27 04:38:25;;;;;;;6.65;5.03;;;6.10;99.90;;;;;;5082601;28;20036;-37
2023/11/27 04:40:51;;;;;;;5.70;4.50;;;6.10;99.90;;;;;;5073724;28;20535;-37
2023/11/27 04:43:17;;;;;;;5.97;4.40;;;6.10;99.90;;;;;;5079892;28;20062;-37
2023/11/27 04:45:43;;;;;;;6.18;4.22;;;6.10;99.90;;;;;;5077067;28;20031;-37
2023/11/27 04:48:08;;;;;;;5.45;4.35;;;6.00;99.90;;;;;;5075763;28;20581;-37
2023/11/27 04:50:34;;;;;;;5.60;4.20;;;6.10;99.90;;;;;;5080107;28;20024;-36
2023/11/27 04:53:00;;;;;;;5.88;3.65;;;6.10;99.90;;;;;;5072565;28;20480;-37
2023/11/27 04:55:25;;;;;;;5.15;4.18;;;6.00;99.90;;;;;;5081648;28;20027;-35
2023/11/27 04:57:51;;;;;;;5.30;4.20;;;6.00;99.90;;;;;;5072209;28;20694;-37
2023/11/27 05:00:17;;;;;;;4.32;3.92;;;6.10;99.90;;;;;;5081497;28;20024;-36
2023/11/27 05:02:45;;;;;;;4.75;3.75;;;6.00;99.90;;;;;;5072136;28;20024;-35
2023/11/27 05:05:16;;;;;;;4.82;4.03;;;6.00;99.90;;;;;;5083145;28;20024;-36
2023/11/27 05:07:42;;;;;;;3.95;3.40;;;6.00;99.90;;;;;;5069021;28;20038;-37
2023/11/27 05:10:10;;;;;;;4.47;3.65;;;6.00;99.90;;;;;;5083366;28;20378;-37
2023/11/27 05:12:35;;;;;;;4.07;3.67;;;6.00;99.90;;;;;;5069981;28;20722;-36
2023/11/27 05:15:03;;;;;;;4.90;3.67;;;6.00;99.90;;;;;;5082017;28;20069;-37
2023/11/27 05:17:29;;;;;;;5.57;4.22;;;6.00;99.90;;;;;;5070826;28;20128;-36
2023/11/27 05:19:55;;;;;;;4.60;3.90;;;6.00;99.90;;;;;;5081606;28;20024;-37
2023/11/27 05:22:20;;;;;;;5.05;3.65;;;5.90;99.90;;;;;;5073171;28;20036;-38
2023/11/27 05:24:46;;;;;;;3.85;3.25;;;5.90;99.90;;;;;;5080201;28;20024;-36
2023/11/27 05:27:12;;;;;;;3.35;2.88;;;5.90;99.90;;;;;;5075662;28;20391;-37
2023/11/27 05:29:37;;;;;;;5.30;3.72;;;5.90;99.90;;;;;;5076379;28;20431;-37
2023/11/27 05:32:07;;;;;;;4.55;3.47;;;5.90;99.90;;;;;;5078785;28;20035;-36
2023/11/27 05:34:34;;;;;;;4.07;3.35;;;5.90;99.90;;;;;;5075268;28;20864;-37
2023/11/27 05:36:59;;;;;;;4.63;3.58;;;5.90;99.90;;;;;;5079569;28;20028;-38
2023/11/27 05:39:25;;;;;;;3.40;2.90;;;5.90;99.90;;;;;;5072621;28;20059;-37
2023/11/27 05:41:52;;;;;;;4.28;3.42;;;5.90;99.90;;;;;;5080428;28;20035;-37
2023/11/27 05:44:19;;;;;;;3.25;2.90;;;5.90;99.90;;;;;;5070533;28;20496;-37
2023/11/27 05:46:45;;;;;;;3.10;2.80;;;5.90;99.90;;;;;;5081695;28;20035;-37
2023/11/27 05:49:11;;;;;;;4.40;2.78;;;5.90;99.90;;;;;;5070514;28;20398;-36
2023/11/27 05:51:39;;;;;;;2.92;2.70;;;5.90;99.90;;;;;;5082287;28;20664;-36
2023/11/27 05:54:06;;;;;;;2.60;2.40;;;5.90;99.90;;;;;;5078215;28;20048;-37
2023/11/27 05:56:32;;;;;;;3.47;3.10;;;5.80;99.90;;;;;;5081666;28;20028;-37
2023/11/27 05:58:57;;;;;;;3.78;3.25;;;5.80;99.90;;;;;;5081161;28;20039;-37
2023/11/27 06:01:26;;;;;;;3.67;3.25;;;5.80;99.90;;;;;;5082625;28;20099;-37
2023/11/27 06:03:51;;;;;;;4.15;2.92;;;5.70;99.90;;;;;;5080827;28;20580;-37
2023/11/27 06:06:20;;;;;;;3.65;3.10;;;5.80;99.90;;;;;;5082074;28;20024;-38
2023/11/27 06:08:45;;;;;;;5.72;3.03;;;5.80;99.90;;;;;;5082101;28;20099;-37
2023/11/27 06:11:11;;;;;;;5.00;3.10;;;5.70;99.90;;;;;;5081731;28;20107;-36
2023/11/27 06:13:37;;;;;;;3.17;2.75;;;5.80;99.90;;;;;;5081438;28;20059;-35
2023/11/27 06:16:03;;;;;;;2.80;2.50;;;5.80;99.90;;;;;;5082200;28;20030;-36
2023/11/27 06:18:28;;;;;;;3.47;2.92;;;5.80;99.90;;;;;;5081475;28;20536;-36
2023/11/27 06:20:54;;;;;;;3.75;2.80;;;5.80;99.90;;;;;;5080614;28;20028;-37
2023/11/27 06:23:19;;;;;;;3.00;2.35;;;5.80;99.90;;;;;;5080542;28;20059;-36
2023/11/27 06:25:45;;;;;;;3.55;2.95;;;5.80;99.90;;;;;;5080107;28;20027;-37
2023/11/27 06:28:13;;;;;;;3.05;2.72;;;5.80;99.90;;;;;;5080118;28;20032;-36
2023/11/27 06:30:39;;;;;;;3.28;2.53;;;5.80;99.90;;;;;;5077477;28;20034;-36
2023/11/27 06:33:05;;;;;;;2.85;2.47;;;5.80;99.90;;;;;;5079668;28;20526;-36
2023/11/27 06:35:36;;;;;;;3.92;3.03;;;5.80;99.90;;;;;;5081299;28;20028;-36
2023/11/27 06:38:02;;;;;;;3.65;3.00;;;5.80;99.90;;;;;;5079875;28;20036;-36
2023/11/27 06:40:28;;;;;;;2.58;2.33;;;5.70;99.90;;;;;;5080110;28;20181;-36
2023/11/27 06:42:55;;;;;;;3.08;2.78;;;5.70;99.90;;;;;;5080456;28;20250;-38
2023/11/27 06:45:21;;;;;;;2.67;2.47;;;5.80;99.90;;;;;;5080436;28;20559;-37
2023/11/27 06:47:47;;;;;;;3.30;2.72;;;5.80;99.90;;;;;;5079567;28;20028;-37
2023/11/27 06:50:12;;;;;;;3.13;2.83;;;5.80;99.90;;;;;;5079907;28;20086;-37
2023/11/27 06:52:38;;;;;;;4.47;2.92;;;5.80;99.90;;;;;;5080400;28;20040;-37
2023/11/27 06:55:04;;;;;;;3.45;3.15;;;5.70;99.90;;;;;;5079558;28;20060;-38
2023/11/27 06:57:30;;;;;;;3.30;2.53;;;5.70;99.90;;;;;;5080771;28;20097;-37
2023/11/27 06:59:56;;;;;;;3.90;2.90;;;5.70;99.90;;;;;;5080048;28;20847;-37
2023/11/27 07:02:21;;;;;;;2.90;2.58;;;5.70;99.90;;;;;;5079939;28;20044;-35
2023/11/27 07:04:47;;;;;;;2.78;2.53;;;5.60;99.90;;;;;;5080847;28;20027;-37
2023/11/27 07:07:13;;;;;;;3.75;2.67;;;5.70;99.90;;;;;;5079522;28;20119;-37
2023/11/27 07:09:38;;;;;;;2.40;2.20;;;5.60;99.90;;;;;;5080637;28;20031;-37
2023/11/27 07:12:04;;;;;;;2.40;2.20;;;5.60;99.90;;;;;;5079750;28;20502;-37
2023/11/27 07:14:31;;;;;;;2.70;2.50;;;5.70;99.90;;;;;;5080158;28;20028;-37
2023/11/27 07:16:56;;;;;;;2.33;2.13;;;5.60;99.90;;;;;;5079417;28;20038;-37
2023/11/27 07:19:25;;;;;;;3.47;2.95;;;5.60;99.90;;;;;;5083051;28;20044;-37
2023/11/27 07:21:50;;;;;;;2.90;2.70;;;5.60;99.90;;;;;;5083282;28;20050;-37
2023/11/27 07:24:17;;;;;;;1.95;1.85;;;5.60;99.90;;;;;;5084692;28;20032;-37
2023/11/27 07:26:43;;;;;;;2.90;2.60;;;5.60;99.90;;;;;;5084116;28;20774;-38
2023/11/27 07:29:09;;;;;;;2.50;2.20;;;5.60;99.90;;;;;;5083411;28;20027;-37
2023/11/27 07:31:35;;;;;;;3.00;2.50;;;5.60;99.90;;;;;;5084369;28;20028;-36
2023/11/27 07:34:02;;;;;;;2.35;2.15;;;5.60;99.90;;;;;;5083846;28;20028;-36
2023/11/27 07:36:29;;;;;;;4.32;2.28;;;5.60;99.90;;;;;;5083602;28;20028;-36
2023/11/27 07:38:55;;;;;;;2.30;2.10;;;5.60;99.90;;;;;;5084153;28;20513;-37
2023/11/27 07:41:22;;;;;;;2.55;2.08;;;5.70;99.90;;;;;;5083792;28;20523;-35
2023/11/27 07:43:48;;;;;;;3.67;2.17;;;5.60;99.90;;;;;;5083057;28;20028;-35
2023/11/27 07:46:14;;;;;;;2.92;2.30;;;5.60;99.90;;;;;;5084722;28;20521;-37
2023/11/27 07:48:40;;;;;;;2.97;1.90;;;5.60;99.90;;;;;;5084913;28;20107;-38
2023/11/27 07:51:06;;;;;;;3.53;2.75;;;5.70;99.90;;;;;;5083781;28;20834;-38
2023/11/27 07:53:32;;;;;;;4.63;2.58;;;5.60;99.90;;;;;;5078044;28;20048;-43
2023/11/27 07:55:59;;;;;;;2.30;2.10;;;5.60;99.90;;;;;;5063700;28;20405;-37
2023/11/27 07:58:25;;;;;;;2.53;2.33;;;5.60;99.90;;;;;;5065875;28;20040;-36
2023/11/27 08:00:51;;;;;;;2.65;2.45;;;5.60;99.90;;;;;;5064035;28;20060;-36
2023/11/27 08:03:17;;;;;;;2.25;2.00;;;5.60;99.90;;;;;;5075758;28;20134;-37
2023/11/27 08:05:43;;;;;;;2.60;2.40;;;5.60;99.90;;;;;;5064240;28;20025;-40
2023/11/27 08:08:08;;;;;;;2.70;2.33;;;5.60;99.90;;;;;;5075349;28;20256;-36
2023/11/27 08:10:36;;;;;;;2.25;1.92;;;5.60;99.90;;;;;;5065044;28;20036;-36
2023/11/27 08:13:02;;;;;;;2.00;1.80;;;5.60;99.90;;;;;;5072566;28;20498;-38
2023/11/27 08:15:30;;;;;;;2.20;2.00;;;5.60;99.90;;;;;;5067711;28;20029;-36
2023/11/27 08:17:56;;;;;;;1.98;1.85;;;5.60;99.90;;;;;;5069511;28;20553;-37
2023/11/27 08:20:28;;;;;;;2.08;1.70;;;5.60;99.90;;;;;;5069095;28;20031;-37
2023/11/27 08:22:54;;;;;;;2.53;1.90;;;5.60;99.90;;;;;;5068395;28;20308;-37
2023/11/27 08:25:19;;;;;;;2.20;2.10;;;5.60;99.90;;;;;;5070773;28;20028;-42
2023/11/27 08:27:46;;;;;;;3.25;2.05;;;5.60;99.90;;;;;;5066523;28;20077;-37
2023/11/27 08:30:13;;;;;;;2.13;1.92;;;5.60;99.90;;;;;;5072177;28;20033;-37
2023/11/27 08:32:39;;;;;;;2.58;2.08;;;5.60;99.90;;;;;;5064087;28;20796;-36
2023/11/27 08:35:07;;;;;;;1.92;1.80;;;5.70;99.90;;;;;;5074841;28;20105;-36
2023/11/27 08:37:36;;;;;;;2.42;2.15;;;5.70;99.90;;;;;;5064280;28;20075;-37
2023/11/27 08:40:07;;;;;;;2.10;1.92;;;5.70;99.90;;;;;;5073561;28;20131;-45
2023/11/27 08:42:36;;;;;;;1.92;1.83;;;5.70;99.90;;;;;;5064357;28;20540;-36
2023/11/27 08:45:10;;;;;;;2.00;1.80;;;5.70;99.90;;;;;;5074204;28;20182;-37
2023/11/27 08:47:39;;;;;;;2.67;1.98;;;5.70;99.90;;;;;;5062292;28;20028;-36
2023/11/27 08:50:07;;;;;;;2.33;2.17;;;5.80;99.90;;;;;;5075053;28;20032;-35
2023/11/27 08:52:33;;;;;;;2.92;2.47;;;5.80;99.90;;;;;;5062739;28;20020;-35
2023/11/27 08:54:58;;;;;;;2.95;2.33;;;5.80;99.90;;;;;;5081418;28;20054;-35
2023/11/27 08:57:24;;;;;;;2.00;1.83;;;5.80;99.90;;;;;;5083470;28;20056;-37
2023/11/27 08:59:50;;;;;;;2.60;2.40;;;5.80;99.90;;;;;;5082337;28;20172;-37
2023/11/27 09:02:17;;;;;;;2.33;2.13;;;5.80;99.90;;;;;;5084167;28;20062;-37
2023/11/27 09:04:42;;;;;;;2.10;2.00;;;5.80;99.90;;;;;;5083377;28;20058;-37
2023/11/27 09:07:08;;;;;;;3.05;2.20;;;5.80;99.90;;;;;;5082187;28;20051;-37
2023/11/27 09:09:36;;;;;;;2.22;2.00;;;5.80;99.90;;;;;;5083055;28;20020;-37
2023/11/27 09:12:08;;;;;;;1.75;1.65;;;5.80;99.90;;;;;;5082793;28;20024;-36
2023/11/27 09:14:33;;;;;;;2.35;2.10;;;5.80;99.90;;;;;;5082517;28;20414;-46
2023/11/27 09:17:02;;;;;;;1.73;1.63;;;5.80;99.90;;;;;;5083785;28;20715;-36
2023/11/27 09:19:28;;;;;;;2.15;1.95;;;5.90;99.90;;;;;;5082911;28;20028;-36
2023/11/27 09:21:55;;;;;;;2.22;2.03;;;5.80;99.90;;;;;;5080950;28;20028;-37
2023/11/27 09:24:20;;;;;;;3.45;1.83;;;5.80;99.90;;;;;;5082791;28;20024;-36
2023/11/27 09:26:46;;;;;;;2.17;1.90;;;5.80;99.90;;;;;;5082966;28;20024;-38
2023/11/27 09:29:11;;;;;;;3.58;2.10;;;5.90;99.90;;;;;;5081610;28;20031;-37
2023/11/27 09:31:37;;;;;;;2.20;2.00;;;5.90;99.90;;;;;;5082667;28;20026;-38
2023/11/27 09:34:03;;;;;;;4.25;1.73;;;5.90;99.90;;;;;;5082890;28;20437;-37
2023/11/27 09:36:30;;;;;;;1.90;1.80;;;5.90;99.90;;;;;;5082765;28;20112;-36
2023/11/27 09:38:55;;;;;;;1.92;1.83;;;5.90;99.90;;;;;;5082368;28;20048;-37
2023/11/27 09:41:21;;;;;;;2.70;1.90;;;6.00;99.90;;;;;;5081334;28;20028;-36
2023/11/27 09:43:47;;;;;;;2.10;1.88;;;6.00;99.90;;;;;;5081103;28;20031;-36
2023/11/27 09:46:18;;;;;;;1.85;1.63;;;6.00;99.90;;;;;;5081933;28;20028;-36
2023/11/27 09:48:45;;;;;;;2.28;2.08;;;6.00;99.90;;;;;;5082343;28;20020;-38
2023/11/27 09:51:14;;;;;;;1.95;1.75;;;6.00;99.90;;;;;;5082514;28;20032;-37
2023/11/27 09:53:49;;;;;;;2.38;2.17;;;6.00;99.90;;;;;;5082466;28;20445;-37
2023/11/27 09:56:14;;;;;;;2.00;1.80;;;6.00;99.90;;;;;;5081517;28;20836;-37
2023/11/27 09:58:42;;;;;;;2.38;2.17;;;6.00;99.90;;;;;;5082198;28;20098;-37
2023/11/27 10:01:11;;;;;;;1.90;1.80;;;6.00;99.90;;;;;;5081603;28;20106;-36
2023/11/27 10:03:38;;;;;;;2.42;2.22;;;6.10;99.90;;;;;;5081736;28;20114;-36
2023/11/27 10:06:06;;;;;;;1.95;1.80;;;6.10;99.90;;;;;;5081902;28;20103;-37
2023/11/27 10:08:32;;;;;;;1.73;1.63;;;6.10;99.90;;;;;;5082228;28;20024;-37
2023/11/27 10:10:57;;;;;;;1.83;1.73;;;6.10;99.90;;;;;;5081100;28;20035;-36
2023/11/27 10:13:34;;;;;;;1.77;1.67;;;6.20;99.90;;;;;;5082118;28;20990;-36
2023/11/27 10:16:06;;;;;;;2.20;1.88;;;6.10;99.90;;;;;;5081820;28;20149;-35
2023/11/27 10:18:35;;;;;;;2.92;1.95;;;6.20;99.90;;;;;;5081510;28;20035;-36
2023/11/27 10:21:08;;;;;;;1.98;1.80;;;6.20;99.90;;;;;;5081319;28;20024;-37
2023/11/27 10:23:34;;;;;;;1.90;1.80;;;6.20;99.90;;;;;;5081974;28;20024;-36
2023/11/27 10:26:00;;;;;;;1.90;1.80;;;6.20;99.90;;;;;;5081631;28;20020;-35
2023/11/27 10:28:42;;;;;;;2.08;1.80;;;6.20;99.90;;;;;;5081913;28;20020;-36
2023/11/27 10:31:08;;;;;;;1.92;1.73;;;6.20;99.90;;;;;;5080750;28;20058;-36
2023/11/27 10:33:37;;;;;;;2.05;1.88;;;6.20;99.90;;;;;;5081868;28;20024;-36
2023/11/27 10:36:05;;;;;;;2.10;1.90;;;6.20;99.90;;;;;;5081073;28;20012;-36
2023/11/27 10:38:30;;;;;;;2.25;1.88;;;6.20;99.90;;;;;;5080404;28;20036;-36
2023/11/27 10:40:57;;;;;;;1.88;1.75;;;6.30;99.90;;;;;;5081452;28;20020;-36
2023/11/27 10:43:24;;;;;;;1.85;1.75;;;6.30;99.90;;;;;;5080649;28;20054;-36
2023/11/27 10:45:52;;;;;;;1.90;1.80;;;6.30;99.90;;;;;;5080049;28;20233;-36
2023/11/27 10:48:20;;;;;;;1.77;1.60;;;6.30;99.90;;;;;;5081357;28;20024;-36
2023/11/27 10:50:48;;;;;;;1.90;1.80;;;6.30;99.90;;;;;;5081181;28;20101;-38
2023/11/27 10:53:18;;;;;;;1.77;1.67;;;6.30;99.90;;;;;;5079646;28;20055;-37
2023/11/27 10:55:45;;;;;;;2.08;1.85;;;6.30;99.90;;;;;;5081561;28;20055;-36
2023/11/27 10:58:12;;;;;;;1.92;1.83;;;6.30;99.90;;;;;;5080528;28;20024;-36
2023/11/27 11:00:57;;;;;;;2.53;2.00;;;6.40;99.90;;;;;;5081368;28;20119;-37
2023/11/27 11:03:24;;;;;;;2.20;2.00;;;6.30;99.90;;;;;;5080858;28;20565;-37
2023/11/27 11:05:56;;;;;;;1.83;1.73;;;6.40;99.90;;;;;;5079663;28;20062;-37
2023/11/27 11:08:26;;;;;;;1.60;1.50;;;6.40;99.90;;;;;;5080620;28;20110;-37
2023/11/27 11:11:00;;;;;;;1.73;1.63;;;6.40;99.90;;;;;;5081068;28;20028;-36
2023/11/27 11:13:27;;;;;;;1.52;1.42;;;6.40;99.90;;;;;;5080408;28;20035;-37
2023/11/27 11:16:24;;;;;;;2.13;1.77;;;6.40;99.90;;;;;;5080660;28;20024;-36
2023/11/27 11:19:12;;;;;;;1.90;1.80;;;6.40;99.90;;;;;;5080970;28;20043;-38
2023/11/27 11:22:17;;;;;;;1.60;1.50;;;6.40;99.90;;;;;;5081461;28;20028;-37
2023/11/27 11:24:58;;;;;;;1.80;1.70;;;6.40;99.90;;;;;;5080983;28;20040;-37
2023/11/27 11:27:39;;;;;;;1.80;1.70;;;6.50;99.90;;;;;;5060296;28;20731;-37
2023/11/27 11:30:06;;;;;;;1.98;1.88;;;6.50;99.90;;;;;;5077969;28;20134;-37
2023/11/27 11:32:31;;;;;;;1.83;1.73;;;6.50;99.90;;;;;;5080749;28;20083;-42
2023/11/27 11:35:02;;;;;;;2.00;1.88;;;6.50;99.90;;;;;;5078175;28;20522;-38
2023/11/27 11:37:29;;;;;;;2.10;2.00;;;6.50;99.90;;;;;;5080676;28;20534;-36
2023/11/27 11:39:56;;;;;;;2.10;1.90;;;6.50;99.90;;;;;;5080708;28;20036;-36
2023/11/27 11:42:33;;;;;;;1.85;1.75;;;6.50;99.90;;;;;;5080826;28;20086;-36
2023/11/27 11:45:06;;;;;;;2.10;2.00;;;6.50;99.90;;;;;;5080206;28;20113;-35
2023/11/27 11:47:37;;;;;;;2.00;1.90;;;6.60;99.90;;;;;;5081358;28;20035;-35
2023/11/27 11:50:25;;;;;;;2.00;1.90;;;6.60;99.90;;;;;;5079578;28;20077;-35
2023/11/27 11:52:58;;;;;;;2.38;2.17;;;6.60;99.90;;;;;;5064423;28;20032;-36
2023/11/27 11:55:35;;;;;;;1.80;1.70;;;6.60;99.90;;;;;;5071786;28;20033;-35
2023/11/27 11:58:29;;;;;;;1.73;1.63;;;6.60;99.90;;;;;;5078340;28;20529;-36
2023/11/27 12:01:01;;;;;;;2.03;1.80;;;6.60;99.90;;;;;;5076947;28;20054;-36
2023/11/27 12:03:32;;;;;;;1.85;1.75;;;6.70;99.90;;;;;;5040255;28;20612;-36
2023/11/27 12:06:02;;;;;;;1.60;1.50;;;6.70;99.90;;;;;;5069275;28;20020;-38
2023/11/27 12:08:29;;;;;;;1.95;1.70;;;6.70;99.90;;;;;;5065578;28;20036;-35
2023/11/27 12:10:57;;;;;;;1.50;1.40;;;6.70;99.90;;;;;;5071604;28;20467;-35
2023/11/27 12:13:35;;;;;;;1.60;1.50;;;6.60;99.90;;;;;;5067611;28;20369;-35
2023/11/27 12:16:12;;;;;;;1.60;1.50;;;6.70;99.90;;;;;;5071430;28;20031;-35
2023/11/27 12:18:42;;;;;;;1.67;1.58;;;6.70;99.90;;;;;;5066480;28;20079;-36
2023/11/27 12:21:14;;;;;;;1.85;1.73;;;6.70;99.90;;;;;;5069416;28;20340;-36
2023/11/27 12:23:40;;;;;;;2.00;1.90;;;6.70;99.90;;;;;;5066806;28;20039;-36
2023/11/27 12:26:08;;;;;;;1.77;1.67;;;6.70;99.90;;;;;;5069967;28;20024;-36
2023/11/27 12:28:36;;;;;;;1.75;1.65;;;6.70;99.90;;;;;;5069928;28;20722;-35
2023/11/27 12:31:04;;;;;;;1.80;1.70;;;6.70;99.90;;;;;;5066691;28;20058;-36
2023/11/27 12:33:31;;;;;;;2.00;1.80;;;6.70;99.90;;;;;;5072019;28;20120;-36
2023/11/27 12:35:57;;;;;;;1.70;1.60;;;6.70;99.90;;;;;;5064145;28;20037;-36
2023/11/27 12:38:24;;;;;;;1.90;1.80;;;6.70;99.90;;;;;;5073302;28;20043;-37
2023/11/27 12:40:52;;;;;;;1.60;1.50;;;6.70;99.90;;;;;;5064743;28;20020;-37
2023/11/27 12:43:18;;;;;;;1.80;1.70;;;6.70;99.90;;;;;;5074755;28;20028;-37
2023/11/27 12:45:46;;;;;;;1.63;1.52;;;6.70;99.90;;;;;;5063820;28;20029;-35
2023/11/27 12:48:21;;;;;;;1.52;1.42;;;6.70;99.90;;;;;;5070863;28;20048;-37
2023/11/27 12:50:54;;;;;;;2.13;1.67;;;6.70;99.90;;;;;;5063146;28;20053;-35
2023/11/27 12:53:21;;;;;;;1.70;1.60;;;6.80;99.90;;;;;;5071071;28;20051;-35
2023/11/27 12:55:49;;;;;;;1.90;1.80;;;6.70;99.90;;;;;;5083385;28;20055;-36